Miami, FL (33156)

10:34 AM EDT on July 24, 2016 (GMT -0400)
Village of Pinecrest | | Change Station

Elev 15 ft 25.66 °N, 80.30 °W | Updated 2 minutes ago

Mostly Cloudy
Mostly Cloudy
79.1 °F
Feels Like 84 °F
N
0.0
Wind Variable Wind from North
Gusts 0.0 mph

Today
High -- | Low -- °F
--% Chance of Precip.
Yesterday
High -- | Low -- °F
Precip. -- in
Pressure 30.06 in
Visibility 10.0 miles
Clouds Few 2500 ft
Scattered Clouds 15000 ft
Mostly Cloudy 20000 ft
Heat Index 84 °F
Dew Point 78 °F
Humidity 97%
Rainfall Not available.
Snow Depth Not available.
6:44 AM 8:11 PM
Waning Gibbous, 76% visible
METAR KMIA 241353Z 00000KT 10SM FEW025 SCT150 BKN200 28/24 A3006 RMK AO2 SLP180 CB DSNT E-SE T02830239
Pressure 30.06 in
Visibility 10.0 miles
Clouds Few 2500 ft
Scattered Clouds 15000 ft
Mostly Cloudy 20000 ft
Heat Index 84 °F
Dew Point 78 °F
Humidity 97%
Rainfall Not available.
Snow Depth Not available.
6:44 AM 8:11 PM
Waning Gibbous, 76% visible
METAR KMIA 241353Z 00000KT 10SM FEW025 SCT150 BKN200 28/24 A3006 RMK AO2 SLP180 CB DSNT E-SE T02830239

10-Day Weather Forecast

Almanac

Astronomy

Jul. 24, 2016 Rise Set
Actual Time
Civil Twilight
Nautical Twilight
Astronomical Twilight
Moon
Length of Visible Light
Length of Day
Tomorrow will be .
, % of the Moon is Illuminated

Today's Extremes

State Highs State Lows

Community

WunderPhotos

Upload Photos

1,927,066 photos uploaded!

WunderBlog® & News

Nearby

Air Quality

  Air Quality AQ Index Pollutant
Not available.

Snow Depth

Station Depth Elevation

Earthquake Activity

City Distance Mag. Time & Date
Minimum magnitude displayed is 2.5.

Coastal Water Temperatures

Place Temperature

Stations

Nearby Weather Stations

Station Location Temp. Windchill Dew Point Humidity Wind Precip. Elev Updated Type
                   

Watches & Warnings

There are currently no watches in effect.